createdAt,value
2023-02-19T00:04:25.917Z,19.6
2023-02-19T00:14:29.595Z,19.9
2023-02-19T00:24:33.379Z,19.8
2023-02-19T00:34:37.756Z,19.9
2023-02-19T00:44:41.684Z,19.7
2023-02-19T00:54:45.617Z,19.7
2023-02-19T01:04:49.567Z,19.6
2023-02-19T01:14:53.486Z,19.6
2023-02-19T01:24:57.399Z,19.6
2023-02-19T01:35:01.395Z,19.4
2023-02-19T01:45:04.916Z,19.6
2023-02-19T01:55:08.813Z,19.6
2023-02-19T02:05:13.271Z,19.6
2023-02-19T02:15:17.030Z,19.6
2023-02-19T02:25:21.409Z,19.5
2023-02-19T02:35:25.391Z,19.7
2023-02-19T02:45:29.384Z,19.5
2023-02-19T02:55:33.312Z,19.6
2023-02-19T03:03:08.036Z,19.3
2023-02-19T03:13:12.476Z,19.5
2023-02-19T03:23:16.471Z,19.4
2023-02-19T03:33:20.519Z,19.6
2023-02-19T03:43:24.596Z,19.5
2023-02-19T03:53:28.620Z,19.3
2023-02-19T04:03:33.195Z,19.2
2023-02-19T04:13:38.479Z,19.3
2023-02-19T04:23:43.901Z,19.3
2023-02-19T04:33:49.148Z,19.3
2023-02-19T04:43:54.489Z,19.3
2023-02-19T04:53:59.847Z,19.1
2023-02-19T05:04:04.664Z,19.2
2023-02-19T05:14:08.790Z,19.2
2023-02-19T05:24:12.551Z,19.3
2023-02-19T05:34:16.773Z,19.4
2023-02-19T05:44:21.007Z,19.7
2023-02-19T05:54:25.332Z,19.9
2023-02-19T06:04:33.661Z,22.3
2023-02-19T06:14:45.571Z,22.6
2023-02-19T06:24:57.930Z,22.6
2023-02-19T06:35:10.129Z,23.1
2023-02-19T06:45:23.208Z,23.3
2023-02-19T06:55:36.390Z,24
2023-02-19T07:05:47.107Z,22.9
2023-02-19T07:11:06.962Z,23.6
2023-02-19T07:21:21.758Z,25
2023-02-19T07:31:35.625Z,25.1
2023-02-19T07:41:47.391Z,25.2
2023-02-19T07:52:03.896Z,25.7
2023-02-19T08:02:19.564Z,27.2
2023-02-19T08:12:36.549Z,26.3
2023-02-19T08:22:51.937Z,26.1
2023-02-19T09:03:12.891Z,27
2023-02-19T09:13:25.449Z,28.2
2023-02-19T09:23:38.600Z,27.4
2023-02-19T09:33:57.629Z,28.3
2023-02-19T09:44:18.466Z,28
2023-02-19T09:54:37.882Z,28.4
2023-02-19T10:04:56.422Z,28.5
2023-02-19T10:15:09.843Z,27.3
2023-02-19T10:25:21.158Z,27.2
2023-02-19T10:35:35.324Z,26.6
2023-02-19T10:45:48.749Z,26.6
2023-02-19T10:56:01.896Z,26.8
2023-02-19T11:06:12.457Z,25.4
2023-02-19T11:16:20.716Z,26.3
2023-02-19T11:26:31.495Z,24.8
2023-02-19T11:36:41.537Z,26.4
2023-02-19T11:46:49.668Z,26.4
2023-02-19T11:56:58.281Z,24.8
2023-02-19T12:07:09.822Z,26.9
2023-02-19T12:17:16.443Z,26
2023-02-19T12:27:21.961Z,25.1
2023-02-19T12:37:26.044Z,23.9
2023-02-19T12:47:29.697Z,23.8
2023-02-19T12:57:33.003Z,23.6
2023-02-19T13:07:36.495Z,23.6
2023-02-19T13:17:39.379Z,23.6
2023-02-19T13:27:42.804Z,23.6
2023-02-19T13:37:46.047Z,23.4
2023-02-19T13:47:49.660Z,23.5
2023-02-19T13:57:52.759Z,23.5
2023-02-19T14:07:55.785Z,23.3
2023-02-19T14:17:58.180Z,20.7
2023-02-19T14:27:56.439Z,20.3
2023-02-19T14:37:59.723Z,23.1
2023-02-19T14:48:00.625Z,20.5
2023-02-19T14:58:03.414Z,23
2023-02-19T15:03:06.924Z,23.2
2023-02-19T15:13:09.536Z,22.9
2023-02-19T15:23:10.690Z,22.6
2023-02-19T15:33:11.691Z,22.8
2023-02-19T15:43:11.952Z,20.4
2023-02-19T15:53:12.308Z,22.5
2023-02-19T16:03:14.008Z,22.7
2023-02-19T16:13:15.698Z,20.9
2023-02-19T16:23:16.701Z,22.6
2023-02-19T16:33:16.972Z,20.8
2023-02-19T21:03:07.964Z,19.7
2023-02-19T21:13:07.664Z,19.9
2023-02-19T21:23:07.792Z,19.7
2023-02-19T21:33:06.922Z,19.7
2023-02-19T21:43:06.596Z,19.6
2023-02-19T21:53:05.835Z,19.7
2023-02-19T22:03:05.723Z,19.6
2023-02-19T22:13:06.827Z,19.4
2023-02-19T22:23:07.541Z,19.5
2023-02-19T22:33:08.803Z,19.1
2023-02-19T22:43:08.762Z,19.4
2023-02-19T22:53:10.170Z,21.2
2023-02-19T23:03:10.257Z,19.3
2023-02-19T23:13:10.196Z,19.4
2023-02-19T23:23:09.538Z,18.9
2023-02-19T23:33:09.265Z,19.4
2023-02-19T23:43:09.171Z,19.1
2023-02-19T23:53:09.297Z,19.6
